sensor_id;sensor_type;location;lat;lon;timestamp;P1;durP1;ratioP1;P2;durP2;ratioP2
8419;SDS011;4247;48.550;8.822;2023-02-27T00:00:06;0.60;;;0.60;;
8419;SDS011;4247;48.550;8.822;2023-02-27T00:02:38;1.53;;;0.80;;
8419;SDS011;4247;48.550;8.822;2023-02-27T00:05:06;0.50;;;0.50;;
8419;SDS011;4247;48.550;8.822;2023-02-27T00:07:33;0.67;;;0.50;;
8419;SDS011;4247;48.550;8.822;2023-02-27T00:10:00;0.87;;;0.60;;
8419;SDS011;4247;48.550;8.822;2023-02-27T00:12:27;0.43;;;0.43;;
8419;SDS011;4247;48.550;8.822;2023-02-27T00:14:54;4.27;;;0.40;;
8419;SDS011;4247;48.550;8.822;2023-02-27T00:17:23;0.70;;;0.67;;
8419;SDS011;4247;48.550;8.822;2023-02-27T00:19:52;1.23;;;0.70;;
8419;SDS011;4247;48.550;8.822;2023-02-27T00:22:19;1.60;;;0.73;;
8419;SDS011;4247;48.550;8.822;2023-02-27T00:24:46;0.83;;;0.50;;
8419;SDS011;4247;48.550;8.822;2023-02-27T00:27:12;1.37;;;0.50;;
8419;SDS011;4247;48.550;8.822;2023-02-27T00:29:39;0.60;;;0.43;;
8419;SDS011;4247;48.550;8.822;2023-02-27T00:32:05;0.60;;;0.60;;
8419;SDS011;4247;48.550;8.822;2023-02-27T00:34:34;0.73;;;0.70;;
8419;SDS011;4247;48.550;8.822;2023-02-27T00:37:00;2.70;;;0.50;;
8419;SDS011;4247;48.550;8.822;2023-02-27T00:39:27;1.13;;;0.50;;
8419;SDS011;4247;48.550;8.822;2023-02-27T00:41:54;0.80;;;0.50;;
8419;SDS011;4247;48.550;8.822;2023-02-27T00:44:20;0.70;;;0.67;;
8419;SDS011;4247;48.550;8.822;2023-02-27T00:46:47;0.67;;;0.50;;
8419;SDS011;4247;48.550;8.822;2023-02-27T00:49:14;0.30;;;0.30;;
8419;SDS011;4247;48.550;8.822;2023-02-27T00:51:42;0.53;;;0.53;;
8419;SDS011;4247;48.550;8.822;2023-02-27T00:54:08;0.50;;;0.50;;
8419;SDS011;4247;48.550;8.822;2023-02-27T00:56:35;3.80;;;0.70;;
8419;SDS011;4247;48.550;8.822;2023-02-27T00:59:02;1.77;;;0.90;;
8419;SDS011;4247;48.550;8.822;2023-02-27T01:01:29;0.60;;;0.60;;
8419;SDS011;4247;48.550;8.822;2023-02-27T01:03:56;0.50;;;0.50;;
8419;SDS011;4247;48.550;8.822;2023-02-27T01:06:22;0.87;;;0.70;;
8419;SDS011;4247;48.550;8.822;2023-02-27T01:08:50;0.50;;;0.50;;
8419;SDS011;4247;48.550;8.822;2023-02-27T01:11:17;0.30;;;0.30;;
8419;SDS011;4247;48.550;8.822;2023-02-27T01:13:44;1.00;;;0.90;;
8419;SDS011;4247;48.550;8.822;2023-02-27T01:16:10;0.37;;;0.37;;
8419;SDS011;4247;48.550;8.822;2023-02-27T01:18:37;0.93;;;0.83;;
8419;SDS011;4247;48.550;8.822;2023-02-27T01:21:04;2.00;;;0.50;;
8419;SDS011;4247;48.550;8.822;2023-02-27T01:23:31;1.27;;;0.40;;
8419;SDS011;4247;48.550;8.822;2023-02-27T01:25:59;1.00;;;1.00;;
8419;SDS011;4247;48.550;8.822;2023-02-27T01:28:27;3.23;;;0.50;;
8419;SDS011;4247;48.550;8.822;2023-02-27T01:30:53;0.53;;;0.53;;
8419;SDS011;4247;48.550;8.822;2023-02-27T01:33:20;2.80;;;0.90;;
8419;SDS011;4247;48.550;8.822;2023-02-27T01:35:47;0.60;;;0.60;;
8419;SDS011;4247;48.550;8.822;2023-02-27T01:38:14;0.50;;;0.50;;
8419;SDS011;4247;48.550;8.822;2023-02-27T01:40:41;0.63;;;0.47;;
8419;SDS011;4247;48.550;8.822;2023-02-27T01:43:11;0.80;;;0.80;;
8419;SDS011;4247;48.550;8.822;2023-02-27T01:45:41;2.00;;;1.07;;
8419;SDS011;4247;48.550;8.822;2023-02-27T01:48:12;0.67;;;0.50;;
8419;SDS011;4247;48.550;8.822;2023-02-27T01:50:44;1.97;;;0.37;;
8419;SDS011;4247;48.550;8.822;2023-02-27T01:53:14;0.40;;;0.40;;
8419;SDS011;4247;48.550;8.822;2023-02-27T01:55:43;0.50;;;0.50;;
8419;SDS011;4247;48.550;8.822;2023-02-27T01:58:14;1.40;;;0.57;;
8419;SDS011;4247;48.550;8.822;2023-02-27T02:00:41;0.80;;;0.60;;
8419;SDS011;4247;48.550;8.822;2023-02-27T02:03:11;1.70;;;0.50;;
8419;SDS011;4247;48.550;8.822;2023-02-27T02:05:43;2.00;;;1.10;;
8419;SDS011;4247;48.550;8.822;2023-02-27T02:08:13;0.77;;;0.60;;
8419;SDS011;4247;48.550;8.822;2023-02-27T02:10:42;7.67;;;0.67;;
8419;SDS011;4247;48.550;8.822;2023-02-27T02:13:09;1.20;;;0.70;;
8419;SDS011;4247;48.550;8.822;2023-02-27T02:15:38;2.10;;;0.83;;
8419;SDS011;4247;48.550;8.822;2023-02-27T02:18:15;2.50;;;0.90;;
8419;SDS011;4247;48.550;8.822;2023-02-27T02:20:58;0.40;;;0.40;;
8419;SDS011;4247;48.550;8.822;2023-02-27T02:23:59;0.37;;;0.37;;
8419;SDS011;4247;48.550;8.822;2023-02-27T02:26:56;0.40;;;0.40;;
8419;SDS011;4247;48.550;8.822;2023-02-27T02:29:51;2.30;;;0.60;;
8419;SDS011;4247;48.550;8.822;2023-02-27T02:35:59;0.60;;;0.60;;
8419;SDS011;4247;48.550;8.822;2023-02-27T02:38:53;0.97;;;0.50;;
8419;SDS011;4247;48.550;8.822;2023-02-27T02:41:48;0.73;;;0.50;;
8419;SDS011;4247;48.550;8.822;2023-02-27T02:44:23;1.67;;;0.67;;
8419;SDS011;4247;48.550;8.822;2023-02-27T02:47:01;1.60;;;0.70;;
8419;SDS011;4247;48.550;8.822;2023-02-27T02:49:32;1.07;;;0.80;;
8419;SDS011;4247;48.550;8.822;2023-02-27T02:52:08;0.60;;;0.50;;
8419;SDS011;4247;48.550;8.822;2023-02-27T02:54:42;1.03;;;0.43;;
8419;SDS011;4247;48.550;8.822;2023-02-27T02:57:14;0.67;;;0.67;;
8419;SDS011;4247;48.550;8.822;2023-02-27T02:59:46;0.70;;;0.70;;
8419;SDS011;4247;48.550;8.822;2023-02-27T03:02:18;2.33;;;0.60;;
8419;SDS011;4247;48.550;8.822;2023-02-27T03:04:50;0.90;;;0.90;;
8419;SDS011;4247;48.550;8.822;2023-02-27T03:07:21;2.93;;;0.70;;
8419;SDS011;4247;48.550;8.822;2023-02-27T03:09:55;3.97;;;0.93;;
8419;SDS011;4247;48.550;8.822;2023-02-27T03:12:25;2.00;;;0.50;;
8419;SDS011;4247;48.550;8.822;2023-02-27T03:14:54;0.73;;;0.60;;
8419;SDS011;4247;48.550;8.822;2023-02-27T03:17:26;1.83;;;0.87;;
8419;SDS011;4247;48.550;8.822;2023-02-27T03:20:00;2.10;;;1.00;;
8419;SDS011;4247;48.550;8.822;2023-02-27T03:22:29;0.93;;;0.90;;
8419;SDS011;4247;48.550;8.822;2023-02-27T03:25:03;0.90;;;0.90;;
8419;SDS011;4247;48.550;8.822;2023-02-27T03:27:34;0.90;;;0.90;;
8419;SDS011;4247;48.550;8.822;2023-02-27T03:30:04;1.10;;;0.80;;
8419;SDS011;4247;48.550;8.822;2023-02-27T03:32:35;0.90;;;0.90;;
8419;SDS011;4247;48.550;8.822;2023-02-27T03:35:07;0.57;;;0.57;;
8419;SDS011;4247;48.550;8.822;2023-02-27T03:37:38;0.60;;;0.60;;
8419;SDS011;4247;48.550;8.822;2023-02-27T03:40:12;0.60;;;0.60;;
8419;SDS011;4247;48.550;8.822;2023-02-27T03:42:52;1.63;;;0.83;;
8419;SDS011;4247;48.550;8.822;2023-02-27T03:45:22;1.00;;;0.80;;
8419;SDS011;4247;48.550;8.822;2023-02-27T03:47:56;0.97;;;0.80;;
8419;SDS011;4247;48.550;8.822;2023-02-27T03:50:23;0.93;;;0.70;;
8419;SDS011;4247;48.550;8.822;2023-02-27T03:52:49;1.17;;;0.80;;
8419;SDS011;4247;48.550;8.822;2023-02-27T03:55:18;1.20;;;0.90;;
8419;SDS011;4247;48.550;8.822;2023-02-27T03:57:48;1.83;;;0.90;;
8419;SDS011;4247;48.550;8.822;2023-02-27T04:00:16;3.20;;;0.87;;
8419;SDS011;4247;48.550;8.822;2023-02-27T04:02:45;4.60;;;1.27;;
8419;SDS011;4247;48.550;8.822;2023-02-27T04:05:15;7.47;;;1.00;;
8419;SDS011;4247;48.550;8.822;2023-02-27T04:07:44;1.83;;;1.00;;
8419;SDS011;4247;48.550;8.822;2023-02-27T04:10:20;0.80;;;0.80;;
8419;SDS011;4247;48.550;8.822;2023-02-27T04:13:10;5.10;;;0.97;;
8419;SDS011;4247;48.550;8.822;2023-02-27T04:16:14;3.37;;;0.70;;
8419;SDS011;4247;48.550;8.822;2023-02-27T04:18:59;0.87;;;0.87;;
8419;SDS011;4247;48.550;8.822;2023-02-27T04:21:36;0.73;;;0.73;;
8419;SDS011;4247;48.550;8.822;2023-02-27T04:24:11;6.50;;;1.03;;
8419;SDS011;4247;48.550;8.822;2023-02-27T04:26:52;3.03;;;1.27;;
8419;SDS011;4247;48.550;8.822;2023-02-27T04:29:24;1.00;;;0.97;;
8419;SDS011;4247;48.550;8.822;2023-02-27T04:32:01;1.70;;;1.00;;
8419;SDS011;4247;48.550;8.822;2023-02-27T04:34:32;2.23;;;1.00;;
8419;SDS011;4247;48.550;8.822;2023-02-27T04:37:05;4.70;;;0.80;;
8419;SDS011;4247;48.550;8.822;2023-02-27T04:39:35;1.20;;;1.10;;
8419;SDS011;4247;48.550;8.822;2023-02-27T04:42:09;2.83;;;1.50;;
8419;SDS011;4247;48.550;8.822;2023-02-27T04:44:39;1.40;;;1.10;;
8419;SDS011;4247;48.550;8.822;2023-02-27T04:47:08;1.17;;;1.17;;
8419;SDS011;4247;48.550;8.822;2023-02-27T04:49:39;3.90;;;1.10;;
8419;SDS011;4247;48.550;8.822;2023-02-27T04:52:10;2.20;;;1.13;;
8419;SDS011;4247;48.550;8.822;2023-02-27T04:54:41;1.47;;;1.13;;
8419;SDS011;4247;48.550;8.822;2023-02-27T04:57:14;2.80;;;1.93;;
8419;SDS011;4247;48.550;8.822;2023-02-27T04:59:45;1.33;;;1.23;;
8419;SDS011;4247;48.550;8.822;2023-02-27T05:02:18;1.67;;;1.50;;
8419;SDS011;4247;48.550;8.822;2023-02-27T05:04:49;1.23;;;1.13;;
8419;SDS011;4247;48.550;8.822;2023-02-27T05:07:21;1.30;;;0.90;;
8419;SDS011;4247;48.550;8.822;2023-02-27T05:09:51;1.20;;;1.10;;
8419;SDS011;4247;48.550;8.822;2023-02-27T05:12:24;5.13;;;1.40;;
8419;SDS011;4247;48.550;8.822;2023-02-27T05:14:55;2.70;;;1.10;;
8419;SDS011;4247;48.550;8.822;2023-02-27T05:17:27;1.13;;;0.90;;
8419;SDS011;4247;48.550;8.822;2023-02-27T05:19:59;1.53;;;1.13;;
8419;SDS011;4247;48.550;8.822;2023-02-27T05:22:30;4.40;;;1.03;;
8419;SDS011;4247;48.550;8.822;2023-02-27T05:25:02;3.43;;;0.93;;
8419;SDS011;4247;48.550;8.822;2023-02-27T05:27:38;1.07;;;0.90;;
8419;SDS011;4247;48.550;8.822;2023-02-27T05:30:14;4.33;;;1.27;;
8419;SDS011;4247;48.550;8.822;2023-02-27T05:32:47;2.03;;;1.13;;
8419;SDS011;4247;48.550;8.822;2023-02-27T05:35:22;2.83;;;1.40;;
8419;SDS011;4247;48.550;8.822;2023-02-27T05:37:52;1.80;;;1.10;;
8419;SDS011;4247;48.550;8.822;2023-02-27T05:40:27;1.20;;;1.10;;
8419;SDS011;4247;48.550;8.822;2023-02-27T05:43:00;4.77;;;1.20;;
8419;SDS011;4247;48.550;8.822;2023-02-27T05:45:30;1.50;;;1.40;;
8419;SDS011;4247;48.550;8.822;2023-02-27T05:47:59;1.07;;;1.03;;
8419;SDS011;4247;48.550;8.822;2023-02-27T05:50:30;1.20;;;1.10;;
8419;SDS011;4247;48.550;8.822;2023-02-27T05:53:01;1.50;;;1.13;;
8419;SDS011;4247;48.550;8.822;2023-02-27T05:55:31;1.30;;;1.20;;
8419;SDS011;4247;48.550;8.822;2023-02-27T05:58:04;1.13;;;1.13;;
8419;SDS011;4247;48.550;8.822;2023-02-27T06:00:36;1.33;;;1.10;;
8419;SDS011;4247;48.550;8.822;2023-02-27T06:03:05;2.63;;;1.20;;
8419;SDS011;4247;48.550;8.822;2023-02-27T06:05:32;1.23;;;1.13;;
8419;SDS011;4247;48.550;8.822;2023-02-27T06:08:01;1.27;;;0.83;;
8419;SDS011;4247;48.550;8.822;2023-02-27T06:10:28;1.57;;;1.37;;
8419;SDS011;4247;48.550;8.822;2023-02-27T06:12:54;4.73;;;1.23;;
8419;SDS011;4247;48.550;8.822;2023-02-27T06:15:22;1.50;;;1.40;;
8419;SDS011;4247;48.550;8.822;2023-02-27T06:17:49;5.23;;;1.53;;
8419;SDS011;4247;48.550;8.822;2023-02-27T06:20:16;2.97;;;1.30;;
8419;SDS011;4247;48.550;8.822;2023-02-27T06:22:43;0.87;;;0.87;;
8419;SDS011;4247;48.550;8.822;2023-02-27T06:25:10;1.80;;;1.20;;
8419;SDS011;4247;48.550;8.822;2023-02-27T06:27:37;1.90;;;1.80;;
8419;SDS011;4247;48.550;8.822;2023-02-27T06:30:04;2.50;;;1.30;;
8419;SDS011;4247;48.550;8.822;2023-02-27T06:32:33;1.80;;;1.23;;
8419;SDS011;4247;48.550;8.822;2023-02-27T06:35:00;1.57;;;1.47;;
8419;SDS011;4247;48.550;8.822;2023-02-27T06:37:27;1.57;;;1.10;;
8419;SDS011;4247;48.550;8.822;2023-02-27T06:39:53;3.07;;;1.50;;
8419;SDS011;4247;48.550;8.822;2023-02-27T06:42:20;5.37;;;1.30;;
8419;SDS011;4247;48.550;8.822;2023-02-27T06:44:47;1.00;;;1.00;;
8419;SDS011;4247;48.550;8.822;2023-02-27T06:47:14;1.70;;;1.60;;
8419;SDS011;4247;48.550;8.822;2023-02-27T06:49:42;1.50;;;1.23;;
8419;SDS011;4247;48.550;8.822;2023-02-27T06:52:08;2.23;;;2.03;;
8419;SDS011;4247;48.550;8.822;2023-02-27T06:54:35;2.53;;;1.77;;
8419;SDS011;4247;48.550;8.822;2023-02-27T06:57:02;1.73;;;1.60;;
8419;SDS011;4247;48.550;8.822;2023-02-27T06:59:29;4.67;;;1.70;;
8419;SDS011;4247;48.550;8.822;2023-02-27T07:01:55;3.80;;;1.93;;
8419;SDS011;4247;48.550;8.822;2023-02-27T07:04:24;2.47;;;1.10;;
8419;SDS011;4247;48.550;8.822;2023-02-27T07:06:52;3.50;;;2.07;;
8419;SDS011;4247;48.550;8.822;2023-02-27T07:09:19;6.53;;;2.00;;
8419;SDS011;4247;48.550;8.822;2023-02-27T07:11:47;4.20;;;1.00;;
8419;SDS011;4247;48.550;8.822;2023-02-27T07:14:14;2.57;;;1.40;;
8419;SDS011;4247;48.550;8.822;2023-02-27T07:16:41;3.07;;;1.43;;
8419;SDS011;4247;48.550;8.822;2023-02-27T07:19:08;1.50;;;1.40;;
8419;SDS011;4247;48.550;8.822;2023-02-27T07:21:35;1.60;;;1.47;;
8419;SDS011;4247;48.550;8.822;2023-02-27T07:24:04;1.43;;;1.33;;
8419;SDS011;4247;48.550;8.822;2023-02-27T07:26:31;1.80;;;1.60;;
8419;SDS011;4247;48.550;8.822;2023-02-27T07:28:57;2.40;;;1.47;;
8419;SDS011;4247;48.550;8.822;2023-02-27T07:31:24;1.47;;;1.37;;
8419;SDS011;4247;48.550;8.822;2023-02-27T07:33:51;2.90;;;1.20;;
8419;SDS011;4247;48.550;8.822;2023-02-27T07:36:18;5.50;;;1.93;;
8419;SDS011;4247;48.550;8.822;2023-02-27T07:38:45;1.57;;;1.37;;
8419;SDS011;4247;48.550;8.822;2023-02-27T07:41:13;1.63;;;1.53;;
8419;SDS011;4247;48.550;8.822;2023-02-27T07:43:40;2.17;;;1.23;;
8419;SDS011;4247;48.550;8.822;2023-02-27T07:46:06;4.60;;;1.97;;
8419;SDS011;4247;48.550;8.822;2023-02-27T07:48:33;2.20;;;1.33;;
8419;SDS011;4247;48.550;8.822;2023-02-27T07:51:00;3.97;;;1.70;;
8419;SDS011;4247;48.550;8.822;2023-02-27T07:53:27;6.00;;;1.60;;
8419;SDS011;4247;48.550;8.822;2023-02-27T07:55:54;7.40;;;2.03;;
8419;SDS011;4247;48.550;8.822;2023-02-27T07:58:22;2.50;;;1.30;;
8419;SDS011;4247;48.550;8.822;2023-02-27T08:00:49;3.87;;;1.57;;
8419;SDS011;4247;48.550;8.822;2023-02-27T08:03:18;2.33;;;1.73;;
8419;SDS011;4247;48.550;8.822;2023-02-27T08:05:44;1.63;;;1.50;;
8419;SDS011;4247;48.550;8.822;2023-02-27T08:08:11;2.27;;;1.43;;
8419;SDS011;4247;48.550;8.822;2023-02-27T08:10:38;2.07;;;1.53;;
8419;SDS011;4247;48.550;8.822;2023-02-27T08:13:04;4.50;;;1.33;;
8419;SDS011;4247;48.550;8.822;2023-02-27T08:15:32;1.63;;;1.53;;
8419;SDS011;4247;48.550;8.822;2023-02-27T08:17:59;1.50;;;1.40;;
8419;SDS011;4247;48.550;8.822;2023-02-27T08:20:26;2.97;;;1.53;;
8419;SDS011;4247;48.550;8.822;2023-02-27T08:22:53;1.43;;;1.33;;
8419;SDS011;4247;48.550;8.822;2023-02-27T08:25:19;1.67;;;1.37;;
8419;SDS011;4247;48.550;8.822;2023-02-27T08:27:46;1.40;;;1.30;;
8419;SDS011;4247;48.550;8.822;2023-02-27T08:30:13;1.40;;;1.00;;
8419;SDS011;4247;48.550;8.822;2023-02-27T08:32:42;1.93;;;1.73;;
8419;SDS011;4247;48.550;8.822;2023-02-27T08:35:09;6.63;;;1.47;;
8419;SDS011;4247;48.550;8.822;2023-02-27T08:37:36;15.40;;;1.30;;
8419;SDS011;4247;48.550;8.822;2023-02-27T08:40:03;1.27;;;1.17;;
8419;SDS011;4247;48.550;8.822;2023-02-27T08:42:31;2.20;;;1.37;;
8419;SDS011;4247;48.550;8.822;2023-02-27T08:44:57;1.20;;;1.10;;
8419;SDS011;4247;48.550;8.822;2023-02-27T08:47:24;0.97;;;0.97;;
8419;SDS011;4247;48.550;8.822;2023-02-27T08:49:52;1.87;;;1.10;;
8419;SDS011;4247;48.550;8.822;2023-02-27T08:52:20;1.23;;;1.13;;
8419;SDS011;4247;48.550;8.822;2023-02-27T08:54:47;6.60;;;1.40;;
8419;SDS011;4247;48.550;8.822;2023-02-27T08:57:13;1.70;;;1.13;;
8419;SDS011;4247;48.550;8.822;2023-02-27T08:59:40;0.90;;;0.80;;
8419;SDS011;4247;48.550;8.822;2023-02-27T09:02:08;2.07;;;1.13;;
8419;SDS011;4247;48.550;8.822;2023-02-27T09:04:34;3.80;;;1.10;;
8419;SDS011;4247;48.550;8.822;2023-02-27T09:07:02;2.10;;;1.30;;
8419;SDS011;4247;48.550;8.822;2023-02-27T09:09:29;1.17;;;1.03;;
8419;SDS011;4247;48.550;8.822;2023-02-27T09:11:56;1.13;;;1.10;;
8419;SDS011;4247;48.550;8.822;2023-02-27T09:14:23;1.00;;;0.90;;
8419;SDS011;4247;48.550;8.822;2023-02-27T09:16:50;1.30;;;1.00;;
8419;SDS011;4247;48.550;8.822;2023-02-27T09:19:16;1.83;;;1.00;;
8419;SDS011;4247;48.550;8.822;2023-02-27T09:21:43;1.80;;;0.87;;
8419;SDS011;4247;48.550;8.822;2023-02-27T09:24:11;1.40;;;1.30;;
8419;SDS011;4247;48.550;8.822;2023-02-27T09:26:37;5.07;;;1.60;;
8419;SDS011;4247;48.550;8.822;2023-02-27T09:29:04;1.93;;;1.07;;
8419;SDS011;4247;48.550;8.822;2023-02-27T09:31:31;3.70;;;1.20;;
8419;SDS011;4247;48.550;8.822;2023-02-27T09:33:58;2.53;;;1.20;;
8419;SDS011;4247;48.550;8.822;2023-02-27T09:36:25;3.10;;;1.23;;
8419;SDS011;4247;48.550;8.822;2023-02-27T09:38:53;1.17;;;1.00;;
8419;SDS011;4247;48.550;8.822;2023-02-27T09:41:24;3.13;;;1.30;;
8419;SDS011;4247;48.550;8.822;2023-02-27T09:44:03;1.50;;;1.03;;
8419;SDS011;4247;48.550;8.822;2023-02-27T09:46:30;2.17;;;1.10;;
8419;SDS011;4247;48.550;8.822;2023-02-27T09:48:57;0.77;;;0.77;;
8419;SDS011;4247;48.550;8.822;2023-02-27T09:51:25;4.53;;;1.17;;
8419;SDS011;4247;48.550;8.822;2023-02-27T09:53:54;4.43;;;1.13;;
8419;SDS011;4247;48.550;8.822;2023-02-27T09:56:25;1.10;;;1.10;;
8419;SDS011;4247;48.550;8.822;2023-02-27T09:58:55;5.90;;;1.60;;
8419;SDS011;4247;48.550;8.822;2023-02-27T10:01:29;0.97;;;0.90;;
8419;SDS011;4247;48.550;8.822;2023-02-27T10:04:03;11.97;;;1.20;;
8419;SDS011;4247;48.550;8.822;2023-02-27T10:06:43;2.77;;;0.83;;
8419;SDS011;4247;48.550;8.822;2023-02-27T10:09:19;1.47;;;0.87;;
8419;SDS011;4247;48.550;8.822;2023-02-27T10:12:06;1.43;;;0.97;;
8419;SDS011;4247;48.550;8.822;2023-02-27T10:14:44;1.10;;;0.80;;
8419;SDS011;4247;48.550;8.822;2023-02-27T10:17:19;0.80;;;0.80;;
8419;SDS011;4247;48.550;8.822;2023-02-27T10:19:49;0.97;;;0.87;;
8419;SDS011;4247;48.550;8.822;2023-02-27T10:22:21;10.67;;;1.20;;
8419;SDS011;4247;48.550;8.822;2023-02-27T10:24:51;0.70;;;0.70;;
8419;SDS011;4247;48.550;8.822;2023-02-27T10:27:25;1.40;;;0.90;;
8419;SDS011;4247;48.550;8.822;2023-02-27T10:29:52;3.57;;;1.13;;
8419;SDS011;4247;48.550;8.822;2023-02-27T10:32:27;3.20;;;0.80;;
8419;SDS011;4247;48.550;8.822;2023-02-27T10:34:59;2.30;;;1.10;;
8419;SDS011;4247;48.550;8.822;2023-02-27T10:37:33;4.83;;;1.07;;
8419;SDS011;4247;48.550;8.822;2023-02-27T10:40:03;4.43;;;0.90;;
8419;SDS011;4247;48.550;8.822;2023-02-27T10:42:34;2.13;;;1.10;;
8419;SDS011;4247;48.550;8.822;2023-02-27T10:45:02;1.03;;;0.90;;
8419;SDS011;4247;48.550;8.822;2023-02-27T10:47:30;0.90;;;0.90;;
8419;SDS011;4247;48.550;8.822;2023-02-27T10:49:57;2.50;;;1.10;;
8419;SDS011;4247;48.550;8.822;2023-02-27T10:52:24;1.93;;;1.00;;
8419;SDS011;4247;48.550;8.822;2023-02-27T10:54:51;3.33;;;0.90;;
8419;SDS011;4247;48.550;8.822;2023-02-27T10:57:24;1.23;;;0.93;;
8419;SDS011;4247;48.550;8.822;2023-02-27T10:59:56;0.70;;;0.70;;
8419;SDS011;4247;48.550;8.822;2023-02-27T11:02:25;1.60;;;0.87;;
8419;SDS011;4247;48.550;8.822;2023-02-27T11:04:57;3.57;;;1.00;;
8419;SDS011;4247;48.550;8.822;2023-02-27T11:07:26;1.13;;;0.70;;
8419;SDS011;4247;48.550;8.822;2023-02-27T11:10:00;3.27;;;1.07;;
8419;SDS011;4247;48.550;8.822;2023-02-27T11:12:29;0.60;;;0.60;;
8419;SDS011;4247;48.550;8.822;2023-02-27T11:14:59;0.90;;;0.80;;
8419;SDS011;4247;48.550;8.822;2023-02-27T11:17:29;2.60;;;0.80;;
8419;SDS011;4247;48.550;8.822;2023-02-27T11:19:58;0.80;;;0.77;;
8419;SDS011;4247;48.550;8.822;2023-02-27T11:22:27;0.70;;;0.70;;
8419;SDS011;4247;48.550;8.822;2023-02-27T11:25:17;4.47;;;1.33;;
8419;SDS011;4247;48.550;8.822;2023-02-27T11:27:46;1.20;;;0.70;;
8419;SDS011;4247;48.550;8.822;2023-02-27T11:30:21;4.83;;;1.00;;
8419;SDS011;4247;48.550;8.822;2023-02-27T11:32:51;0.80;;;0.80;;
8419;SDS011;4247;48.550;8.822;2023-02-27T11:35:21;3.50;;;0.83;;
8419;SDS011;4247;48.550;8.822;2023-02-27T11:37:51;2.03;;;1.00;;
8419;SDS011;4247;48.550;8.822;2023-02-27T11:40:20;0.60;;;0.60;;
8419;SDS011;4247;48.550;8.822;2023-02-27T11:42:51;0.90;;;0.80;;
8419;SDS011;4247;48.550;8.822;2023-02-27T11:45:25;1.23;;;0.70;;
8419;SDS011;4247;48.550;8.822;2023-02-27T11:47:56;0.87;;;0.83;;
8419;SDS011;4247;48.550;8.822;2023-02-27T11:56:19;2.93;;;0.80;;
8419;SDS011;4247;48.550;8.822;2023-02-27T11:58:50;1.80;;;1.10;;
8419;SDS011;4247;48.550;8.822;2023-02-27T12:01:26;1.00;;;0.80;;
8419;SDS011;4247;48.550;8.822;2023-02-27T12:03:58;1.30;;;0.83;;
8419;SDS011;4247;48.550;8.822;2023-02-27T12:06:30;1.27;;;0.83;;
8419;SDS011;4247;48.550;8.822;2023-02-27T12:09:04;1.73;;;1.20;;
8419;SDS011;4247;48.550;8.822;2023-02-27T12:11:37;1.47;;;1.27;;
8419;SDS011;4247;48.550;8.822;2023-02-27T12:14:10;1.47;;;0.90;;
8419;SDS011;4247;48.550;8.822;2023-02-27T12:16:43;2.03;;;1.10;;
8419;SDS011;4247;48.550;8.822;2023-02-27T12:19:16;1.00;;;0.90;;
8419;SDS011;4247;48.550;8.822;2023-02-27T12:21:47;4.07;;;0.77;;
8419;SDS011;4247;48.550;8.822;2023-02-27T12:24:19;1.37;;;1.10;;
8419;SDS011;4247;48.550;8.822;2023-02-27T12:26:50;1.83;;;1.13;;
8419;SDS011;4247;48.550;8.822;2023-02-27T12:29:24;1.10;;;1.00;;
8419;SDS011;4247;48.550;8.822;2023-02-27T12:31:58;4.20;;;1.00;;
8419;SDS011;4247;48.550;8.822;2023-02-27T12:34:31;0.70;;;0.63;;
8419;SDS011;4247;48.550;8.822;2023-02-27T12:37:04;0.70;;;0.70;;
8419;SDS011;4247;48.550;8.822;2023-02-27T12:39:36;0.83;;;0.80;;
8419;SDS011;4247;48.550;8.822;2023-02-27T12:45:29;1.57;;;1.40;;
8419;SDS011;4247;48.550;8.822;2023-02-27T12:48:20;1.27;;;1.17;;
8419;SDS011;4247;48.550;8.822;2023-02-27T12:50:56;2.67;;;2.30;;
8419;SDS011;4247;48.550;8.822;2023-02-27T12:53:37;1.53;;;1.13;;
8419;SDS011;4247;48.550;8.822;2023-02-27T12:56:16;2.03;;;0.70;;
8419;SDS011;4247;48.550;8.822;2023-02-27T12:58:47;2.37;;;0.80;;
8419;SDS011;4247;48.550;8.822;2023-02-27T13:01:25;1.23;;;1.13;;
8419;SDS011;4247;48.550;8.822;2023-02-27T13:04:01;2.30;;;1.00;;
8419;SDS011;4247;48.550;8.822;2023-02-27T13:06:33;1.20;;;0.90;;
8419;SDS011;4247;48.550;8.822;2023-02-27T13:09:10;1.80;;;1.00;;
8419;SDS011;4247;48.550;8.822;2023-02-27T13:11:46;0.73;;;0.60;;
8419;SDS011;4247;48.550;8.822;2023-02-27T13:14:24;0.87;;;0.87;;
8419;SDS011;4247;48.550;8.822;2023-02-27T13:16:56;3.37;;;1.30;;
8419;SDS011;4247;48.550;8.822;2023-02-27T13:19:30;7.30;;;0.80;;
8419;SDS011;4247;48.550;8.822;2023-02-27T13:22:01;0.90;;;0.90;;
8419;SDS011;4247;48.550;8.822;2023-02-27T13:24:36;0.77;;;0.77;;
8419;SDS011;4247;48.550;8.822;2023-02-27T13:27:09;0.70;;;0.70;;
8419;SDS011;4247;48.550;8.822;2023-02-27T13:29:44;2.40;;;0.97;;
8419;SDS011;4247;48.550;8.822;2023-02-27T13:32:20;1.23;;;1.10;;
8419;SDS011;4247;48.550;8.822;2023-02-27T13:34:53;1.70;;;0.80;;
8419;SDS011;4247;48.550;8.822;2023-02-27T13:37:22;2.20;;;0.80;;
8419;SDS011;4247;48.550;8.822;2023-02-27T13:39:50;1.03;;;0.90;;
8419;SDS011;4247;48.550;8.822;2023-02-27T13:48:35;0.80;;;0.80;;
8419;SDS011;4247;48.550;8.822;2023-02-27T13:51:06;1.00;;;1.00;;
8419;SDS011;4247;48.550;8.822;2023-02-27T13:53:34;0.60;;;0.57;;
8419;SDS011;4247;48.550;8.822;2023-02-27T13:56:16;0.90;;;0.90;;
8419;SDS011;4247;48.550;8.822;2023-02-27T13:58:45;2.23;;;0.70;;
8419;SDS011;4247;48.550;8.822;2023-02-27T14:01:14;3.07;;;0.70;;
8419;SDS011;4247;48.550;8.822;2023-02-27T14:03:50;0.70;;;0.70;;
8419;SDS011;4247;48.550;8.822;2023-02-27T14:06:20;1.00;;;0.90;;
8419;SDS011;4247;48.550;8.822;2023-02-27T14:08:49;1.47;;;0.90;;
8419;SDS011;4247;48.550;8.822;2023-02-27T14:11:20;0.80;;;0.80;;
8419;SDS011;4247;48.550;8.822;2023-02-27T14:14:00;1.07;;;0.60;;
8419;SDS011;4247;48.550;8.822;2023-02-27T14:19:25;1.33;;;0.87;;
8419;SDS011;4247;48.550;8.822;2023-02-27T14:25:21;1.20;;;0.90;;
8419;SDS011;4247;48.550;8.822;2023-02-27T14:27:56;2.23;;;1.20;;
8419;SDS011;4247;48.550;8.822;2023-02-27T14:30:28;0.70;;;0.70;;
8419;SDS011;4247;48.550;8.822;2023-02-27T14:32:59;1.50;;;1.00;;
8419;SDS011;4247;48.550;8.822;2023-02-27T14:35:36;1.00;;;0.80;;
8419;SDS011;4247;48.550;8.822;2023-02-27T14:38:07;3.37;;;0.90;;
8419;SDS011;4247;48.550;8.822;2023-02-27T14:40:38;1.17;;;0.70;;
8419;SDS011;4247;48.550;8.822;2023-02-27T14:43:16;1.10;;;1.10;;
8419;SDS011;4247;48.550;8.822;2023-02-27T14:45:51;1.50;;;1.03;;
8419;SDS011;4247;48.550;8.822;2023-02-27T14:48:21;0.60;;;0.60;;
8419;SDS011;4247;48.550;8.822;2023-02-27T14:50:52;1.10;;;1.00;;
8419;SDS011;4247;48.550;8.822;2023-02-27T14:53:24;3.50;;;0.97;;
8419;SDS011;4247;48.550;8.822;2023-02-27T14:55:52;5.23;;;1.00;;
8419;SDS011;4247;48.550;8.822;2023-02-27T14:58:20;0.63;;;0.63;;
8419;SDS011;4247;48.550;8.822;2023-02-27T15:00:47;2.03;;;0.87;;
8419;SDS011;4247;48.550;8.822;2023-02-27T15:03:23;0.87;;;0.80;;
8419;SDS011;4247;48.550;8.822;2023-02-27T15:05:54;2.50;;;2.30;;
8419;SDS011;4247;48.550;8.822;2023-02-27T15:08:27;3.40;;;1.43;;
8419;SDS011;4247;48.550;8.822;2023-02-27T15:10:56;2.93;;;0.90;;
8419;SDS011;4247;48.550;8.822;2023-02-27T15:13:24;0.70;;;0.70;;
8419;SDS011;4247;48.550;8.822;2023-02-27T15:18:54;3.57;;;1.00;;
8419;SDS011;4247;48.550;8.822;2023-02-27T15:21:23;2.00;;;1.07;;
8419;SDS011;4247;48.550;8.822;2023-02-27T15:23:56;1.27;;;0.90;;
8419;SDS011;4247;48.550;8.822;2023-02-27T15:26:24;0.83;;;0.70;;
8419;SDS011;4247;48.550;8.822;2023-02-27T15:28:53;0.87;;;0.87;;
8419;SDS011;4247;48.550;8.822;2023-02-27T15:31:23;2.27;;;1.07;;
8419;SDS011;4247;48.550;8.822;2023-02-27T15:33:55;3.27;;;0.90;;
8419;SDS011;4247;48.550;8.822;2023-02-27T15:36:23;2.93;;;1.13;;
8419;SDS011;4247;48.550;8.822;2023-02-27T15:39:05;1.00;;;1.00;;
8419;SDS011;4247;48.550;8.822;2023-02-27T15:41:33;0.97;;;0.90;;
8419;SDS011;4247;48.550;8.822;2023-02-27T15:44:01;1.27;;;0.60;;
8419;SDS011;4247;48.550;8.822;2023-02-27T15:46:29;4.00;;;1.50;;
8419;SDS011;4247;48.550;8.822;2023-02-27T15:48:57;1.60;;;0.90;;
8419;SDS011;4247;48.550;8.822;2023-02-27T15:51:24;1.00;;;0.63;;
8419;SDS011;4247;48.550;8.822;2023-02-27T15:53:53;0.83;;;0.60;;
8419;SDS011;4247;48.550;8.822;2023-02-27T15:56:25;2.23;;;1.00;;
8419;SDS011;4247;48.550;8.822;2023-02-27T15:58:56;1.67;;;0.70;;
8419;SDS011;4247;48.550;8.822;2023-02-27T16:01:25;1.90;;;0.80;;
8419;SDS011;4247;48.550;8.822;2023-02-27T16:03:54;0.90;;;0.70;;